sensor_id;sensor_type;location;lat;lon;timestamp;P1;durP1;ratioP1;P2;durP2;ratioP2
24813;SDS011;12904;50.088;11.414;2022-12-18T00:01:51;104.15;;;30.60;;
24813;SDS011;12904;50.088;11.414;2022-12-18T00:04:21;110.43;;;30.75;;
24813;SDS011;12904;50.088;11.414;2022-12-18T00:06:48;94.15;;;31.50;;
24813;SDS011;12904;50.088;11.414;2022-12-18T00:09:14;99.30;;;29.83;;
24813;SDS011;12904;50.088;11.414;2022-12-18T00:11:39;105.88;;;29.48;;
24813;SDS011;12904;50.088;11.414;2022-12-18T00:14:05;92.68;;;27.25;;
24813;SDS011;12904;50.088;11.414;2022-12-18T00:16:31;92.07;;;27.75;;
24813;SDS011;12904;50.088;11.414;2022-12-18T00:18:58;106.22;;;29.50;;
24813;SDS011;12904;50.088;11.414;2022-12-18T00:21:25;88.30;;;25.92;;
24813;SDS011;12904;50.088;11.414;2022-12-18T00:23:52;84.28;;;25.85;;
24813;SDS011;12904;50.088;11.414;2022-12-18T00:26:19;73.07;;;26.50;;
24813;SDS011;12904;50.088;11.414;2022-12-18T00:28:47;62.00;;;24.15;;
24813;SDS011;12904;50.088;11.414;2022-12-18T00:31:17;66.32;;;24.77;;
24813;SDS011;12904;50.088;11.414;2022-12-18T00:33:47;67.68;;;23.10;;
24813;SDS011;12904;50.088;11.414;2022-12-18T00:36:14;68.75;;;25.45;;
24813;SDS011;12904;50.088;11.414;2022-12-18T00:38:42;60.83;;;23.33;;
24813;SDS011;12904;50.088;11.414;2022-12-18T00:41:09;71.13;;;25.67;;
24813;SDS011;12904;50.088;11.414;2022-12-18T00:43:36;74.30;;;25.88;;
24813;SDS011;12904;50.088;11.414;2022-12-18T00:46:02;65.63;;;24.33;;
24813;SDS011;12904;50.088;11.414;2022-12-18T00:48:28;63.83;;;25.25;;
24813;SDS011;12904;50.088;11.414;2022-12-18T00:50:54;62.70;;;22.45;;
24813;SDS011;12904;50.088;11.414;2022-12-18T00:53:20;72.40;;;24.08;;
24813;SDS011;12904;50.088;11.414;2022-12-18T00:55:45;65.25;;;24.73;;
24813;SDS011;12904;50.088;11.414;2022-12-18T00:58:12;70.93;;;25.52;;
24813;SDS011;12904;50.088;11.414;2022-12-18T01:00:39;59.78;;;24.08;;
24813;SDS011;12904;50.088;11.414;2022-12-18T01:03:05;68.55;;;23.08;;
24813;SDS011;12904;50.088;11.414;2022-12-18T01:05:31;67.53;;;23.50;;
24813;SDS011;12904;50.088;11.414;2022-12-18T01:07:57;66.22;;;24.25;;
24813;SDS011;12904;50.088;11.414;2022-12-18T01:10:23;65.43;;;23.60;;
24813;SDS011;12904;50.088;11.414;2022-12-18T01:12:49;67.13;;;24.05;;
24813;SDS011;12904;50.088;11.414;2022-12-18T01:15:16;73.95;;;23.75;;
24813;SDS011;12904;50.088;11.414;2022-12-18T01:17:42;65.93;;;24.88;;
24813;SDS011;12904;50.088;11.414;2022-12-18T01:20:09;65.28;;;23.55;;
24813;SDS011;12904;50.088;11.414;2022-12-18T01:22:35;55.13;;;23.58;;
24813;SDS011;12904;50.088;11.414;2022-12-18T01:25:01;71.75;;;24.80;;
24813;SDS011;12904;50.088;11.414;2022-12-18T01:27:29;71.00;;;23.52;;
24813;SDS011;12904;50.088;11.414;2022-12-18T01:29:54;57.05;;;23.35;;
24813;SDS011;12904;50.088;11.414;2022-12-18T01:32:20;73.38;;;22.88;;
24813;SDS011;12904;50.088;11.414;2022-12-18T01:34:46;61.92;;;22.30;;
24813;SDS011;12904;50.088;11.414;2022-12-18T01:37:12;61.50;;;25.33;;
24813;SDS011;12904;50.088;11.414;2022-12-18T01:39:38;78.85;;;22.75;;
24813;SDS011;12904;50.088;11.414;2022-12-18T01:42:05;60.97;;;23.48;;
24813;SDS011;12904;50.088;11.414;2022-12-18T01:44:56;72.22;;;25.60;;
24813;SDS011;12904;50.088;11.414;2022-12-18T01:47:37;92.47;;;29.70;;
24813;SDS011;12904;50.088;11.414;2022-12-18T01:50:13;88.55;;;28.88;;
24813;SDS011;12904;50.088;11.414;2022-12-18T01:52:40;80.53;;;28.65;;
24813;SDS011;12904;50.088;11.414;2022-12-18T01:55:10;61.30;;;23.85;;
24813;SDS011;12904;50.088;11.414;2022-12-18T01:57:37;64.75;;;22.95;;
24813;SDS011;12904;50.088;11.414;2022-12-18T02:00:07;70.85;;;23.58;;
24813;SDS011;12904;50.088;11.414;2022-12-18T02:02:40;64.30;;;23.10;;
24813;SDS011;12904;50.088;11.414;2022-12-18T02:05:07;62.42;;;22.75;;
24813;SDS011;12904;50.088;11.414;2022-12-18T02:07:42;56.17;;;22.50;;
24813;SDS011;12904;50.088;11.414;2022-12-18T02:18:50;55.42;;;21.50;;
24813;SDS011;12904;50.088;11.414;2022-12-18T02:21:42;70.43;;;22.83;;
24813;SDS011;12904;50.088;11.414;2022-12-18T02:26:59;67.65;;;23.13;;
24813;SDS011;12904;50.088;11.414;2022-12-18T02:32:09;82.20;;;26.55;;
24813;SDS011;12904;50.088;11.414;2022-12-18T02:34:40;85.13;;;26.15;;
24813;SDS011;12904;50.088;11.414;2022-12-18T02:37:08;90.95;;;25.73;;
24813;SDS011;12904;50.088;11.414;2022-12-18T02:39:38;101.10;;;29.98;;
24813;SDS011;12904;50.088;11.414;2022-12-18T02:42:06;238.63;;;67.75;;
24813;SDS011;12904;50.088;11.414;2022-12-18T02:44:33;157.40;;;53.47;;
24813;SDS011;12904;50.088;11.414;2022-12-18T02:47:00;90.63;;;33.05;;
24813;SDS011;12904;50.088;11.414;2022-12-18T02:52:38;95.22;;;29.38;;
24813;SDS011;12904;50.088;11.414;2022-12-18T02:57:59;62.42;;;23.95;;
24813;SDS011;12904;50.088;11.414;2022-12-18T03:00:43;54.30;;;21.30;;
24813;SDS011;12904;50.088;11.414;2022-12-18T03:03:25;67.40;;;22.25;;
24813;SDS011;12904;50.088;11.414;2022-12-18T03:06:06;62.15;;;21.90;;
24813;SDS011;12904;50.088;11.414;2022-12-18T03:08:46;61.05;;;22.13;;
24813;SDS011;12904;50.088;11.414;2022-12-18T03:11:16;57.15;;;21.73;;
24813;SDS011;12904;50.088;11.414;2022-12-18T03:14:02;58.45;;;21.85;;
24813;SDS011;12904;50.088;11.414;2022-12-18T03:16:31;52.95;;;19.98;;
24813;SDS011;12904;50.088;11.414;2022-12-18T03:19:01;43.83;;;17.35;;
24813;SDS011;12904;50.088;11.414;2022-12-18T03:22:08;40.67;;;19.17;;
24813;SDS011;12904;50.088;11.414;2022-12-18T03:24:29;53.22;;;21.20;;
24813;SDS011;12904;50.088;11.414;2022-12-18T03:26:59;58.38;;;22.42;;
24813;SDS011;12904;50.088;11.414;2022-12-18T03:31:59;76.15;;;28.27;;
24813;SDS011;12904;50.088;11.414;2022-12-18T03:34:31;95.47;;;36.40;;
24813;SDS011;12904;50.088;11.414;2022-12-18T03:37:02;111.68;;;44.33;;
24813;SDS011;12904;50.088;11.414;2022-12-18T03:39:29;91.78;;;31.27;;
24813;SDS011;12904;50.088;11.414;2022-12-18T03:44:59;70.25;;;27.98;;
24813;SDS011;12904;50.088;11.414;2022-12-18T03:50:49;58.70;;;20.60;;
24813;SDS011;12904;50.088;11.414;2022-12-18T03:55:45;66.18;;;22.60;;
24813;SDS011;12904;50.088;11.414;2022-12-18T03:58:13;48.97;;;22.30;;
24813;SDS011;12904;50.088;11.414;2022-12-18T04:00:43;53.75;;;20.02;;
24813;SDS011;12904;50.088;11.414;2022-12-18T04:03:09;55.65;;;21.48;;
24813;SDS011;12904;50.088;11.414;2022-12-18T04:05:35;68.55;;;23.45;;
24813;SDS011;12904;50.088;11.414;2022-12-18T04:08:02;61.55;;;21.05;;
24813;SDS011;12904;50.088;11.414;2022-12-18T04:10:28;51.60;;;18.60;;
24813;SDS011;12904;50.088;11.414;2022-12-18T04:12:57;55.17;;;20.52;;
24813;SDS011;12904;50.088;11.414;2022-12-18T04:15:23;39.72;;;17.98;;
24813;SDS011;12904;50.088;11.414;2022-12-18T04:17:49;49.65;;;17.85;;
24813;SDS011;12904;50.088;11.414;2022-12-18T04:20:15;42.58;;;17.95;;
24813;SDS011;12904;50.088;11.414;2022-12-18T04:22:41;45.53;;;18.13;;
24813;SDS011;12904;50.088;11.414;2022-12-18T04:25:07;61.05;;;19.58;;
24813;SDS011;12904;50.088;11.414;2022-12-18T04:27:36;51.03;;;19.77;;
24813;SDS011;12904;50.088;11.414;2022-12-18T04:30:02;44.33;;;18.27;;
24813;SDS011;12904;50.088;11.414;2022-12-18T04:32:28;42.47;;;16.83;;
24813;SDS011;12904;50.088;11.414;2022-12-18T04:34:53;53.25;;;20.38;;
24813;SDS011;12904;50.088;11.414;2022-12-18T04:37:19;51.28;;;20.88;;
24813;SDS011;12904;50.088;11.414;2022-12-18T04:39:45;53.92;;;21.88;;
24813;SDS011;12904;50.088;11.414;2022-12-18T04:42:11;56.53;;;20.40;;
24813;SDS011;12904;50.088;11.414;2022-12-18T04:44:38;53.88;;;20.00;;
24813;SDS011;12904;50.088;11.414;2022-12-18T04:47:03;57.47;;;20.15;;
24813;SDS011;12904;50.088;11.414;2022-12-18T04:49:29;56.33;;;19.52;;
24813;SDS011;12904;50.088;11.414;2022-12-18T04:51:54;43.75;;;19.15;;
24813;SDS011;12904;50.088;11.414;2022-12-18T04:54:21;52.60;;;19.83;;
24813;SDS011;12904;50.088;11.414;2022-12-18T04:56:47;46.38;;;19.42;;
24813;SDS011;12904;50.088;11.414;2022-12-18T04:59:13;43.67;;;19.77;;
24813;SDS011;12904;50.088;11.414;2022-12-18T05:01:39;55.50;;;20.13;;
24813;SDS011;12904;50.088;11.414;2022-12-18T05:04:04;49.72;;;20.05;;
24813;SDS011;12904;50.088;11.414;2022-12-18T05:06:30;53.25;;;20.58;;
24813;SDS011;12904;50.088;11.414;2022-12-18T05:08:55;47.70;;;19.35;;
24813;SDS011;12904;50.088;11.414;2022-12-18T05:11:21;51.38;;;20.20;;
24813;SDS011;12904;50.088;11.414;2022-12-18T05:13:47;54.28;;;23.65;;
24813;SDS011;12904;50.088;11.414;2022-12-18T05:16:14;56.28;;;22.38;;
24813;SDS011;12904;50.088;11.414;2022-12-18T05:18:40;55.33;;;21.73;;
24813;SDS011;12904;50.088;11.414;2022-12-18T05:21:06;60.42;;;20.77;;
24813;SDS011;12904;50.088;11.414;2022-12-18T05:23:35;65.18;;;23.27;;
24813;SDS011;12904;50.088;11.414;2022-12-18T05:26:02;57.50;;;21.25;;
24813;SDS011;12904;50.088;11.414;2022-12-18T05:28:30;51.95;;;19.83;;
24813;SDS011;12904;50.088;11.414;2022-12-18T05:30:57;52.20;;;21.98;;
24813;SDS011;12904;50.088;11.414;2022-12-18T05:33:24;59.83;;;23.42;;
24813;SDS011;12904;50.088;11.414;2022-12-18T05:35:52;48.55;;;19.48;;
24813;SDS011;12904;50.088;11.414;2022-12-18T05:38:20;51.10;;;18.70;;
24813;SDS011;12904;50.088;11.414;2022-12-18T05:40:47;50.65;;;19.75;;
24813;SDS011;12904;50.088;11.414;2022-12-18T05:43:13;44.05;;;18.33;;
24813;SDS011;12904;50.088;11.414;2022-12-18T05:45:40;53.03;;;18.52;;
24813;SDS011;12904;50.088;11.414;2022-12-18T05:48:06;49.20;;;19.33;;
24813;SDS011;12904;50.088;11.414;2022-12-18T05:50:36;57.78;;;18.85;;
24813;SDS011;12904;50.088;11.414;2022-12-18T05:53:03;41.83;;;17.65;;
24813;SDS011;12904;50.088;11.414;2022-12-18T05:55:29;50.47;;;18.70;;
24813;SDS011;12904;50.088;11.414;2022-12-18T05:58:01;35.28;;;16.50;;
24813;SDS011;12904;50.088;11.414;2022-12-18T06:00:28;36.58;;;17.13;;
24813;SDS011;12904;50.088;11.414;2022-12-18T06:02:54;42.50;;;16.92;;
24813;SDS011;12904;50.088;11.414;2022-12-18T06:05:19;43.00;;;17.50;;
24813;SDS011;12904;50.088;11.414;2022-12-18T06:07:45;49.88;;;18.45;;
24813;SDS011;12904;50.088;11.414;2022-12-18T06:10:11;42.78;;;16.33;;
24813;SDS011;12904;50.088;11.414;2022-12-18T06:12:36;44.90;;;16.48;;
24813;SDS011;12904;50.088;11.414;2022-12-18T06:15:02;46.38;;;16.33;;
24813;SDS011;12904;50.088;11.414;2022-12-18T06:17:29;41.88;;;16.80;;
24813;SDS011;12904;50.088;11.414;2022-12-18T06:19:55;40.97;;;16.98;;
24813;SDS011;12904;50.088;11.414;2022-12-18T06:22:21;43.85;;;16.95;;
24813;SDS011;12904;50.088;11.414;2022-12-18T06:24:46;50.55;;;18.55;;
24813;SDS011;12904;50.088;11.414;2022-12-18T06:27:12;42.65;;;17.35;;
24813;SDS011;12904;50.088;11.414;2022-12-18T06:29:38;47.75;;;17.77;;
24813;SDS011;12904;50.088;11.414;2022-12-18T06:32:03;50.35;;;18.17;;
24813;SDS011;12904;50.088;11.414;2022-12-18T06:34:32;49.95;;;20.02;;
24813;SDS011;12904;50.088;11.414;2022-12-18T06:36:58;49.63;;;18.52;;
24813;SDS011;12904;50.088;11.414;2022-12-18T06:39:24;45.30;;;17.92;;
24813;SDS011;12904;50.088;11.414;2022-12-18T06:41:52;41.60;;;16.58;;
24813;SDS011;12904;50.088;11.414;2022-12-18T06:44:18;44.10;;;17.98;;
24813;SDS011;12904;50.088;11.414;2022-12-18T06:46:43;45.58;;;15.93;;
24813;SDS011;12904;50.088;11.414;2022-12-18T06:49:09;42.35;;;17.27;;
24813;SDS011;12904;50.088;11.414;2022-12-18T06:51:35;46.33;;;17.45;;
24813;SDS011;12904;50.088;11.414;2022-12-18T06:54:01;50.85;;;19.48;;
24813;SDS011;12904;50.088;11.414;2022-12-18T06:56:26;49.03;;;19.25;;
24813;SDS011;12904;50.088;11.414;2022-12-18T06:58:52;45.22;;;18.52;;
24813;SDS011;12904;50.088;11.414;2022-12-18T07:01:18;60.65;;;19.90;;
24813;SDS011;12904;50.088;11.414;2022-12-18T07:03:44;53.30;;;18.30;;
24813;SDS011;12904;50.088;11.414;2022-12-18T07:06:17;85.75;;;24.15;;
24813;SDS011;12904;50.088;11.414;2022-12-18T07:08:44;60.47;;;22.20;;
24813;SDS011;12904;50.088;11.414;2022-12-18T07:11:11;79.05;;;25.20;;
24813;SDS011;12904;50.088;11.414;2022-12-18T07:13:37;62.30;;;21.92;;
24813;SDS011;12904;50.088;11.414;2022-12-18T07:16:03;74.10;;;23.90;;
24813;SDS011;12904;50.088;11.414;2022-12-18T07:18:36;42.65;;;16.08;;
24813;SDS011;12904;50.088;11.414;2022-12-18T07:21:03;37.90;;;17.33;;
24813;SDS011;12904;50.088;11.414;2022-12-18T07:23:34;43.50;;;16.35;;
24813;SDS011;12904;50.088;11.414;2022-12-18T07:26:04;39.40;;;14.82;;
24813;SDS011;12904;50.088;11.414;2022-12-18T07:28:31;40.20;;;17.00;;
24813;SDS011;12904;50.088;11.414;2022-12-18T07:30:58;48.17;;;16.65;;
24813;SDS011;12904;50.088;11.414;2022-12-18T07:33:28;33.63;;;14.88;;
24813;SDS011;12904;50.088;11.414;2022-12-18T07:35:53;53.42;;;16.83;;
24813;SDS011;12904;50.088;11.414;2022-12-18T07:38:19;44.45;;;19.33;;
24813;SDS011;12904;50.088;11.414;2022-12-18T07:40:45;44.78;;;15.93;;
24813;SDS011;12904;50.088;11.414;2022-12-18T07:43:10;47.08;;;19.30;;
24813;SDS011;12904;50.088;11.414;2022-12-18T07:45:36;43.05;;;17.35;;
24813;SDS011;12904;50.088;11.414;2022-12-18T07:48:01;46.13;;;16.65;;
24813;SDS011;12904;50.088;11.414;2022-12-18T07:50:27;37.78;;;16.05;;
24813;SDS011;12904;50.088;11.414;2022-12-18T07:52:53;40.72;;;15.10;;
24813;SDS011;12904;50.088;11.414;2022-12-18T07:55:18;36.28;;;15.32;;
24813;SDS011;12904;50.088;11.414;2022-12-18T07:57:44;39.35;;;16.42;;
24813;SDS011;12904;50.088;11.414;2022-12-18T08:00:10;39.25;;;17.67;;
24813;SDS011;12904;50.088;11.414;2022-12-18T08:02:37;42.72;;;16.45;;
24813;SDS011;12904;50.088;11.414;2022-12-18T08:05:02;42.15;;;16.02;;
24813;SDS011;12904;50.088;11.414;2022-12-18T08:07:28;40.15;;;17.50;;
24813;SDS011;12904;50.088;11.414;2022-12-18T08:09:54;50.95;;;19.75;;
24813;SDS011;12904;50.088;11.414;2022-12-18T08:12:19;42.05;;;17.95;;
24813;SDS011;12904;50.088;11.414;2022-12-18T08:14:45;46.47;;;19.10;;
24813;SDS011;12904;50.088;11.414;2022-12-18T08:17:11;45.88;;;17.02;;
24813;SDS011;12904;50.088;11.414;2022-12-18T08:19:36;45.88;;;19.88;;
24813;SDS011;12904;50.088;11.414;2022-12-18T08:22:02;51.67;;;20.02;;
24813;SDS011;12904;50.088;11.414;2022-12-18T08:24:27;46.25;;;20.25;;
24813;SDS011;12904;50.088;11.414;2022-12-18T08:26:53;41.83;;;18.30;;
24813;SDS011;12904;50.088;11.414;2022-12-18T08:29:19;38.40;;;16.05;;
24813;SDS011;12904;50.088;11.414;2022-12-18T08:31:44;41.00;;;15.63;;
24813;SDS011;12904;50.088;11.414;2022-12-18T08:34:10;36.45;;;15.73;;
24813;SDS011;12904;50.088;11.414;2022-12-18T08:36:36;38.75;;;14.13;;
24813;SDS011;12904;50.088;11.414;2022-12-18T08:39:01;46.50;;;15.68;;
24813;SDS011;12904;50.088;11.414;2022-12-18T08:41:27;30.85;;;13.85;;
24813;SDS011;12904;50.088;11.414;2022-12-18T08:43:53;37.13;;;14.68;;
24813;SDS011;12904;50.088;11.414;2022-12-18T08:46:38;51.97;;;16.75;;
24813;SDS011;12904;50.088;11.414;2022-12-18T08:49:05;41.00;;;14.77;;
24813;SDS011;12904;50.088;11.414;2022-12-18T08:51:32;42.50;;;17.20;;
24813;SDS011;12904;50.088;11.414;2022-12-18T08:53:58;46.22;;;15.65;;
24813;SDS011;12904;50.088;11.414;2022-12-18T08:56:24;36.90;;;16.83;;
24813;SDS011;12904;50.088;11.414;2022-12-18T08:58:53;39.53;;;16.27;;
24813;SDS011;12904;50.088;11.414;2022-12-18T09:01:19;46.72;;;16.92;;
24813;SDS011;12904;50.088;11.414;2022-12-18T09:03:45;38.42;;;15.43;;
24813;SDS011;12904;50.088;11.414;2022-12-18T09:06:13;38.35;;;15.95;;
24813;SDS011;12904;50.088;11.414;2022-12-18T09:08:40;44.25;;;17.05;;
24813;SDS011;12904;50.088;11.414;2022-12-18T09:11:28;43.67;;;15.95;;
24813;SDS011;12904;50.088;11.414;2022-12-18T09:13:53;36.80;;;14.30;;
24813;SDS011;12904;50.088;11.414;2022-12-18T09:16:20;46.55;;;17.27;;
24813;SDS011;12904;50.088;11.414;2022-12-18T09:18:46;31.98;;;15.52;;
24813;SDS011;12904;50.088;11.414;2022-12-18T09:21:16;39.40;;;15.48;;
24813;SDS011;12904;50.088;11.414;2022-12-18T09:26:09;36.75;;;15.32;;
24813;SDS011;12904;50.088;11.414;2022-12-18T09:28:35;44.45;;;18.63;;
24813;SDS011;12904;50.088;11.414;2022-12-18T09:31:04;31.92;;;16.95;;
24813;SDS011;12904;50.088;11.414;2022-12-18T09:33:32;31.60;;;17.17;;
24813;SDS011;12904;50.088;11.414;2022-12-18T09:36:00;32.40;;;19.33;;
24813;SDS011;12904;50.088;11.414;2022-12-18T09:38:27;34.22;;;19.77;;
24813;SDS011;12904;50.088;11.414;2022-12-18T09:40:53;44.28;;;22.05;;
24813;SDS011;12904;50.088;11.414;2022-12-18T09:43:37;40.00;;;23.52;;
24813;SDS011;12904;50.088;11.414;2022-12-18T09:46:11;36.33;;;18.92;;
24813;SDS011;12904;50.088;11.414;2022-12-18T09:48:45;48.03;;;23.50;;
24813;SDS011;12904;50.088;11.414;2022-12-18T09:51:14;36.83;;;20.55;;
24813;SDS011;12904;50.088;11.414;2022-12-18T09:53:47;37.47;;;19.60;;
24813;SDS011;12904;50.088;11.414;2022-12-18T09:56:19;35.97;;;21.45;;
24813;SDS011;12904;50.088;11.414;2022-12-18T09:58:58;41.85;;;20.55;;
24813;SDS011;12904;50.088;11.414;2022-12-18T10:01:24;37.65;;;20.90;;
24813;SDS011;12904;50.088;11.414;2022-12-18T10:03:52;41.70;;;20.90;;
24813;SDS011;12904;50.088;11.414;2022-12-18T10:16:47;35.60;;;20.73;;
24813;SDS011;12904;50.088;11.414;2022-12-18T10:22:07;24.95;;;16.65;;
24813;SDS011;12904;50.088;11.414;2022-12-18T10:24:42;33.40;;;17.42;;
24813;SDS011;12904;50.088;11.414;2022-12-18T10:27:22;26.13;;;15.77;;
24813;SDS011;12904;50.088;11.414;2022-12-18T10:29:50;24.02;;;16.65;;
24813;SDS011;12904;50.088;11.414;2022-12-18T10:32:23;24.73;;;16.85;;
24813;SDS011;12904;50.088;11.414;2022-12-18T10:34:52;24.08;;;14.85;;
24813;SDS011;12904;50.088;11.414;2022-12-18T10:37:21;17.27;;;13.07;;
24813;SDS011;12904;50.088;11.414;2022-12-18T10:43:02;20.60;;;13.00;;
24813;SDS011;12904;50.088;11.414;2022-12-18T10:45:30;17.63;;;12.25;;
24813;SDS011;12904;50.088;11.414;2022-12-18T10:47:55;16.98;;;11.95;;
24813;SDS011;12904;50.088;11.414;2022-12-18T10:50:34;20.27;;;13.52;;
24813;SDS011;12904;50.088;11.414;2022-12-18T10:53:03;21.15;;;13.75;;
24813;SDS011;12904;50.088;11.414;2022-12-18T10:55:33;15.35;;;11.60;;
24813;SDS011;12904;50.088;11.414;2022-12-18T11:00:38;16.98;;;10.85;;
24813;SDS011;12904;50.088;11.414;2022-12-18T11:03:07;19.83;;;12.20;;
24813;SDS011;12904;50.088;11.414;2022-12-18T11:06:08;23.15;;;12.25;;
24813;SDS011;12904;50.088;11.414;2022-12-18T11:11:15;16.52;;;11.27;;
24813;SDS011;12904;50.088;11.414;2022-12-18T11:13:51;19.63;;;11.93;;
24813;SDS011;12904;50.088;11.414;2022-12-18T11:16:42;19.17;;;13.27;;
24813;SDS011;12904;50.088;11.414;2022-12-18T11:19:32;17.02;;;11.40;;
24813;SDS011;12904;50.088;11.414;2022-12-18T11:21:56;22.52;;;11.82;;
24813;SDS011;12904;50.088;11.414;2022-12-18T11:26:53;20.60;;;12.55;;
24813;SDS011;12904;50.088;11.414;2022-12-18T11:29:31;17.30;;;12.77;;
24813;SDS011;12904;50.088;11.414;2022-12-18T11:34:44;16.85;;;10.80;;
24813;SDS011;12904;50.088;11.414;2022-12-18T11:37:13;19.50;;;11.35;;
24813;SDS011;12904;50.088;11.414;2022-12-18T11:39:52;21.42;;;11.35;;
24813;SDS011;12904;50.088;11.414;2022-12-18T11:42:37;24.58;;;11.40;;
24813;SDS011;12904;50.088;11.414;2022-12-18T11:47:43;19.85;;;11.88;;
24813;SDS011;12904;50.088;11.414;2022-12-18T11:50:24;18.75;;;11.57;;
24813;SDS011;12904;50.088;11.414;2022-12-18T11:52:54;21.40;;;10.50;;
24813;SDS011;12904;50.088;11.414;2022-12-18T12:04:13;15.07;;;10.23;;
24813;SDS011;12904;50.088;11.414;2022-12-18T12:06:48;17.60;;;10.95;;
24813;SDS011;12904;50.088;11.414;2022-12-18T12:15:00;16.65;;;10.15;;
24813;SDS011;12904;50.088;11.414;2022-12-18T12:17:43;16.20;;;10.23;;
24813;SDS011;12904;50.088;11.414;2022-12-18T12:20:20;19.48;;;10.40;;
24813;SDS011;12904;50.088;11.414;2022-12-18T12:39:36;18.48;;;9.73;;
24813;SDS011;12904;50.088;11.414;2022-12-18T12:42:05;18.73;;;10.52;;
24813;SDS011;12904;50.088;11.414;2022-12-18T12:44:59;20.40;;;10.95;;
24813;SDS011;12904;50.088;11.414;2022-12-18T12:47:31;22.92;;;10.82;;
24813;SDS011;12904;50.088;11.414;2022-12-18T12:55:28;18.02;;;9.98;;
24813;SDS011;12904;50.088;11.414;2022-12-18T13:01:09;17.02;;;10.10;;
24813;SDS011;12904;50.088;11.414;2022-12-18T13:06:08;21.67;;;10.90;;
24813;SDS011;12904;50.088;11.414;2022-12-18T13:08:56;19.10;;;10.35;;
24813;SDS011;12904;50.088;11.414;2022-12-18T13:14:21;18.85;;;10.43;;
24813;SDS011;12904;50.088;11.414;2022-12-18T13:16:56;22.92;;;10.85;;
24813;SDS011;12904;50.088;11.414;2022-12-18T13:22:23;20.08;;;11.45;;
24813;SDS011;12904;50.088;11.414;2022-12-18T13:24:53;16.85;;;10.65;;
24813;SDS011;12904;50.088;11.414;2022-12-18T13:35:53;19.08;;;10.10;;
24813;SDS011;12904;50.088;11.414;2022-12-18T13:42:42;16.17;;;8.55;;
24813;SDS011;12904;50.088;11.414;2022-12-18T13:45:01;18.92;;;9.40;;
24813;SDS011;12904;50.088;11.414;2022-12-18T13:48:21;11.23;;;7.03;;
24813;SDS011;12904;50.088;11.414;2022-12-18T13:50:53;15.70;;;7.82;;
24813;SDS011;12904;50.088;11.414;2022-12-18T13:53:31;13.68;;;7.65;;
24813;SDS011;12904;50.088;11.414;2022-12-18T13:56:03;16.60;;;8.20;;
24813;SDS011;12904;50.088;11.414;2022-12-18T13:58:30;14.30;;;7.60;;
24813;SDS011;12904;50.088;11.414;2022-12-18T14:00:56;13.45;;;7.93;;
24813;SDS011;12904;50.088;11.414;2022-12-18T14:03:24;13.48;;;7.57;;
24813;SDS011;12904;50.088;11.414;2022-12-18T14:05:53;9.90;;;6.72;;
24813;SDS011;12904;50.088;11.414;2022-12-18T14:11:16;16.45;;;7.95;;
24813;SDS011;12904;50.088;11.414;2022-12-18T14:13:45;13.48;;;8.57;;
24813;SDS011;12904;50.088;11.414;2022-12-18T14:16:12;11.82;;;7.40;;
24813;SDS011;12904;50.088;11.414;2022-12-18T14:21:24;12.27;;;8.13;;
24813;SDS011;12904;50.088;11.414;2022-12-18T14:24:04;15.57;;;8.40;;
24813;SDS011;12904;50.088;11.414;2022-12-18T14:26:33;15.40;;;8.25;;
24813;SDS011;12904;50.088;11.414;2022-12-18T14:28:59;15.95;;;8.68;;
24813;SDS011;12904;50.088;11.414;2022-12-18T14:31:44;13.80;;;8.93;;
24813;SDS011;12904;50.088;11.414;2022-12-18T14:34:15;17.23;;;8.45;;
24813;SDS011;12904;50.088;11.414;2022-12-18T14:36:41;13.82;;;8.55;;
24813;SDS011;12904;50.088;11.414;2022-12-18T14:39:18;12.80;;;7.85;;
24813;SDS011;12904;50.088;11.414;2022-12-18T14:41:43;13.63;;;8.60;;
24813;SDS011;12904;50.088;11.414;2022-12-18T14:44:11;16.23;;;9.13;;
24813;SDS011;12904;50.088;11.414;2022-12-18T14:46:38;21.25;;;10.20;;
24813;SDS011;12904;50.088;11.414;2022-12-18T14:49:29;14.10;;;9.50;;
24813;SDS011;12904;50.088;11.414;2022-12-18T14:52:04;15.32;;;9.38;;
24813;SDS011;12904;50.088;11.414;2022-12-18T14:54:39;14.10;;;8.85;;
24813;SDS011;12904;50.088;11.414;2022-12-18T14:57:18;18.50;;;9.55;;
24813;SDS011;12904;50.088;11.414;2022-12-18T14:59:47;16.17;;;8.90;;
24813;SDS011;12904;50.088;11.414;2022-12-18T15:02:23;21.60;;;9.93;;
24813;SDS011;12904;50.088;11.414;2022-12-18T15:05:51;16.77;;;8.60;;
24813;SDS011;12904;50.088;11.414;2022-12-18T15:07:56;16.05;;;9.02;;
24813;SDS011;12904;50.088;11.414;2022-12-18T15:20:32;19.60;;;9.95;;
24813;SDS011;12904;50.088;11.414;2022-12-18T15:33:42;14.18;;;8.82;;
24813;SDS011;12904;50.088;11.414;2022-12-18T15:36:14;17.73;;;9.65;;
24813;SDS011;12904;50.088;11.414;2022-12-18T15:38:41;17.40;;;9.93;;
24813;SDS011;12904;50.088;11.414;2022-12-18T15:41:17;17.40;;;9.65;;
24813;SDS011;12904;50.088;11.414;2022-12-18T15:43:44;19.85;;;10.57;;
24813;SDS011;12904;50.088;11.414;2022-12-18T15:46:12;17.55;;;9.80;;
24813;SDS011;12904;50.088;11.414;2022-12-18T15:48:43;17.60;;;9.63;;
24813;SDS011;12904;50.088;11.414;2022-12-18T15:51:18;18.52;;;9.98;;
24813;SDS011;12904;50.088;11.414;2022-12-18T15:53:48;17.70;;;10.15;;
24813;SDS011;12904;50.088;11.414;2022-12-18T15:56:16;22.23;;;9.77;;
24813;SDS011;12904;50.088;11.414;2022-12-18T15:59:00;18.30;;;10.10;;
24813;SDS011;12904;50.088;11.414;2022-12-18T16:01:27;18.63;;;10.45;;
24813;SDS011;12904;50.088;11.414;2022-12-18T16:03:54;22.17;;;10.95;;
24813;SDS011;12904;50.088;11.414;2022-12-18T16:06:21;21.98;;;11.48;;
24813;SDS011;12904;50.088;11.414;2022-12-18T16:08:47;21.10;;;10.90;;
24813;SDS011;12904;50.088;11.414;2022-12-18T16:11:23;21.85;;;11.25;;
24813;SDS011;12904;50.088;11.414;2022-12-18T16:14:04;28.45;;;12.43;;
24813;SDS011;12904;50.088;11.414;2022-12-18T16:16:30;25.67;;;11.30;;
24813;SDS011;12904;50.088;11.414;2022-12-18T16:18:56;22.23;;;11.32;;
24813;SDS011;12904;50.088;11.414;2022-12-18T16:21:21;26.73;;;11.20;;
24813;SDS011;12904;50.088;11.414;2022-12-18T16:23:47;21.40;;;11.65;;
24813;SDS011;12904;50.088;11.414;2022-12-18T16:26:12;25.33;;;10.98;;
24813;SDS011;12904;50.088;11.414;2022-12-18T16:28:38;24.08;;;12.23;;
24813;SDS011;12904;50.088;11.414;2022-12-18T16:31:04;24.10;;;12.20;;
24813;SDS011;12904;50.088;11.414;2022-12-18T16:33:30;28.40;;;12.52;;
24813;SDS011;12904;50.088;11.414;2022-12-18T16:35:55;21.88;;;11.55;;
24813;SDS011;12904;50.088;11.414;2022-12-18T16:38:21;21.65;;;12.55;;
24813;SDS011;12904;50.088;11.414;2022-12-18T16:40:46;28.75;;;13.48;;
24813;SDS011;12904;50.088;11.414;2022-12-18T16:43:31;22.80;;;12.18;;
24813;SDS011;12904;50.088;11.414;2022-12-18T16:45:58;23.25;;;12.50;;
24813;SDS011;12904;50.088;11.414;2022-12-18T16:48:24;20.67;;;12.95;;
24813;SDS011;12904;50.088;11.414;2022-12-18T16:50:49;28.30;;;13.05;;
24813;SDS011;12904;50.088;11.414;2022-12-18T16:53:24;21.90;;;12.73;;
24813;SDS011;12904;50.088;11.414;2022-12-18T16:55:53;23.38;;;13.00;;